Wilmington, North Carolina
Current Conditions -  °F | °C
As of 4:53 AM on Wednesday 22 Oct 2014 (Local Time) from KILM Reporting Station
Few Clouds Few Clouds  
Wind Chill: 54°   Ceiling: Unl
Heat Index: 54°   Visibility: 10mi
Dew Point: 42°   Wind: 10mph
Humidity: 64%   Direction: 320°NW
Pressure: 29.9"   Gusts: NA
Location:  34.24°N, 77.94°W
Report Text: KILM 220853Z AUTO 32009KT 10SM FEW090 12/06 A2990 RMK AO2 SLP124 T01220056 53003
Loading
Personal Weather Stations






























Interactive Weather Map
Tropical Storm Tracking
New forecast layout! Learn more

10-Day Weather Forecast

Advertisements
Track Severe Weather on mobile